Time;durP1;ratioP1;P1;durP2;ratioP2;P2;SDS_P1;SDS_P2;PMS_P1;PMS_P2;Temp;Humidity;BMP_temperature;BMP_pressure;BME280_temperature;BME280_humidity;BME280_pressure;Samples;Min_cycle;Max_cycle;Signal;HPM_P1;HPM_P2
2022/02/24 00:02:07;;;;;;;9.70;2.78;;;7.50;99.90;;;;;;5022376;28;20060;-80
2022/02/24 00:04:33;;;;;;;5.93;2.40;;;7.50;99.90;;;;;;5035568;28;20084;-83
2022/02/24 00:06:59;;;;;;;;;;;7.30;99.90;;;;;;5018778;28;20753;-82
2022/02/24 00:09:25;;;;;;;6.85;2.30;;;7.40;99.90;;;;;;5035282;28;19925;-82
2022/02/24 00:11:51;;;;;;;6.85;2.47;;;7.40;99.90;;;;;;5045218;28;20068;-82
2022/02/24 00:14:17;;;;;;;;;;;7.40;99.90;;;;;;5040303;28;20044;-82
2022/02/24 00:16:42;;;;;;;8.43;2.67;;;7.40;99.90;;;;;;5027467;28;19924;-82
2022/02/24 00:19:08;;;;;;;11.15;2.70;;;7.40;99.90;;;;;;5017310;28;20044;-82
2022/02/24 00:21:34;;;;;;;4.45;1.73;;;7.40;99.90;;;;;;5017129;28;20041;-84
2022/02/24 00:23:59;;;;;;;10.15;2.45;;;7.40;99.90;;;;;;5032200;28;20130;-78
2022/02/24 00:26:25;;;;;;;5.13;2.72;;;7.40;99.90;;;;;;5033184;28;20398;-82
2022/02/24 00:28:51;;;;;;;9.85;1.98;;;7.30;99.90;;;;;;5044087;28;20046;-80
2022/02/24 00:31:16;;;;;;;4.45;1.90;;;7.30;99.90;;;;;;5019590;28;20049;-82
2022/02/24 00:33:42;;;;;;;4.50;2.00;;;7.30;99.90;;;;;;5043527;28;20072;-80
2022/02/24 00:36:08;;;;;;;9.80;1.80;;;7.30;99.90;;;;;;5033888;28;20057;-81
2022/02/24 00:38:34;;;;;;;6.47;1.83;;;7.50;99.90;;;;;;5032805;28;20069;-79
2022/02/24 00:41:00;;;;;;;6.55;2.03;;;7.20;99.90;;;;;;5032285;28;20083;-79
2022/02/24 00:43:26;;;;;;;8.50;2.97;;;7.20;99.90;;;;;;5032926;28;20430;-83
2022/02/24 00:45:52;;;;;;;5.50;2.40;;;7.40;99.90;;;;;;5029447;28;20091;-82
2022/02/24 00:48:18;;;;;;;9.75;2.22;;;7.00;99.90;;;;;;5032612;28;20041;-82
2022/02/24 00:50:46;;;;;;;10.60;2.92;;;7.30;99.90;;;;;;5036572;28;20107;-80
2022/02/24 00:53:12;;;;;;;4.88;2.17;;;7.40;99.90;;;;;;5036673;28;20139;-78
2022/02/24 00:55:37;;;;;;;11.18;2.08;;;7.30;99.90;;;;;;5034917;28;20077;-81
2022/02/24 00:58:04;;;;;;;4.75;1.95;;;7.30;99.90;;;;;;5050241;28;20061;-81
2022/02/24 01:00:30;;;;;;;;;;;7.30;99.90;;;;;;5034134;28;20047;-79
2022/02/24 01:02:56;;;;;;;7.10;1.92;;;7.30;99.90;;;;;;5036938;28;19917;-82
2022/02/24 01:05:21;;;;;;;6.68;2.45;;;7.30;99.90;;;;;;5033546;28;20402;-79
2022/02/24 01:07:47;;;;;;;4.53;2.17;;;7.30;99.90;;;;;;5034750;28;20498;-80
2022/02/24 01:10:13;;;;;;;8.82;3.55;;;7.40;99.90;;;;;;5040776;28;20052;-81
2022/02/24 01:12:38;;;;;;;4.20;1.75;;;7.40;99.90;;;;;;5039142;28;20439;-81
2022/02/24 01:15:07;;;;;;;6.18;2.47;;;7.40;99.90;;;;;;5028819;28;20049;-83
2022/02/24 01:17:36;;;;;;;5.00;2.50;;;7.40;99.90;;;;;;5026885;28;20049;-82
2022/02/24 01:20:06;;;;;;;10.07;2.72;;;7.40;99.90;;;;;;5031383;28;20098;-79
2022/02/24 01:22:32;;;;;;;4.05;1.77;;;7.50;99.90;;;;;;5040942;28;20561;-79
2022/02/24 01:24:57;;;;;;;4.93;2.40;;;7.50;99.90;;;;;;5033673;28;20057;-83
2022/02/24 01:27:23;;;;;;;6.15;1.95;;;7.40;99.90;;;;;;5029842;28;20107;-80
2022/02/24 01:29:49;;;;;;;5.25;2.10;;;7.80;99.90;;;;;;5028834;28;20613;-79
2022/02/24 01:32:14;;;;;;;2.92;1.90;;;7.30;99.90;;;;;;5032821;28;20037;-79
2022/02/24 01:34:40;;;;;;;9.27;2.17;;;7.30;99.90;;;;;;5015377;28;20367;-80
2022/02/24 01:37:06;;;;;;;7.53;2.25;;;7.30;99.90;;;;;;5032126;28;20126;-81
2022/02/24 01:39:32;;;;;;;8.43;2.30;;;7.20;99.90;;;;;;5031839;28;20044;-79
2022/02/24 01:41:58;;;;;;;7.38;2.10;;;7.40;99.90;;;;;;5039655;28;20584;-79
2022/02/24 01:44:24;;;;;;;5.55;1.92;;;7.30;99.90;;;;;;5033382;28;20043;-79
2022/02/24 01:46:50;;;;;;;5.43;2.15;;;7.30;99.90;;;;;;5036384;28;20543;-81
2022/02/24 01:49:18;;;;;;;9.77;2.72;;;7.30;99.90;;;;;;5031598;28;20045;-81
2022/02/24 01:51:43;;;;;;;4.68;1.58;;;7.30;99.90;;;;;;5040174;28;20049;-81
2022/02/24 01:54:09;;;;;;;7.15;2.28;;;7.40;99.90;;;;;;5028846;28;20038;-82
2022/02/24 01:56:36;;;;;;;7.88;1.70;;;7.30;99.90;;;;;;5015033;28;20034;-84
2022/02/24 01:59:03;;;;;;;5.30;2.13;;;7.30;99.90;;;;;;5014995;28;20065;-83
2022/02/24 02:01:29;;;;;;;7.88;2.53;;;7.40;99.90;;;;;;5023962;28;20034;-80
2022/02/24 02:03:55;;;;;;;6.75;2.53;;;7.30;99.90;;;;;;5031538;28;20131;-84
2022/02/24 02:06:21;;;;;;;;;;;7.30;99.90;;;;;;5022149;28;20037;-79
2022/02/24 02:08:47;;;;;;;3.83;2.20;;;7.20;99.90;;;;;;5014139;28;19924;-82
2022/02/24 02:11:13;;;;;;;;;;;7.30;99.90;;;;;;5030606;28;20073;-82
2022/02/24 02:13:39;;;;;;;7.05;1.73;;;7.30;99.90;;;;;;5030927;28;19971;-79
2022/02/24 02:16:07;;;;;;;8.55;2.30;;;7.40;99.90;;;;;;5034205;28;20045;-82
2022/02/24 02:18:33;;;;;;;7.90;2.38;;;7.30;99.90;;;;;;5022281;28;20033;-82
2022/02/24 02:20:59;;;;;;;6.22;1.80;;;7.20;99.90;;;;;;5035623;28;20167;-81
2022/02/24 02:23:25;;;;;;;7.35;2.15;;;7.20;99.90;;;;;;5031273;28;20120;-82
2022/02/24 02:25:50;;;;;;;6.90;2.28;;;7.20;99.90;;;;;;5039473;28;20056;-82
2022/02/24 02:28:16;;;;;;;6.97;2.38;;;7.30;99.90;;;;;;5043060;28;20495;-83
2022/02/24 02:30:43;;;;;;;5.65;2.28;;;7.20;99.90;;;;;;5031162;28;20052;-84
2022/02/24 02:33:10;;;;;;;5.30;1.80;;;7.10;99.90;;;;;;5031014;28;20482;-79
2022/02/24 02:35:36;;;;;;;;;;;7.20;99.90;;;;;;5026607;28;20080;-84
2022/02/24 02:38:02;;;;;;;5.45;2.78;;;7.10;99.90;;;;;;5030698;28;19916;-83
2022/02/24 02:40:28;;;;;;;8.60;2.92;;;7.00;99.90;;;;;;5031188;28;20111;-83
2022/02/24 02:42:54;;;;;;;7.40;2.08;;;7.10;99.90;;;;;;5038607;28;20053;-84
2022/02/24 02:45:21;;;;;;;8.95;2.15;;;6.90;99.90;;;;;;5038016;28;20057;-82
2022/02/24 02:47:47;;;;;;;8.85;2.38;;;6.90;99.90;;;;;;5033911;28;20491;-83
2022/02/24 02:50:13;;;;;;;8.23;2.65;;;6.90;99.90;;;;;;5031143;28;20044;-83
2022/02/24 02:52:39;;;;;;;5.07;2.40;;;6.80;99.90;;;;;;5013888;28;20128;-81
2022/02/24 02:55:07;;;;;;;8.40;3.03;;;6.80;99.90;;;;;;5031873;28;20105;-83
2022/02/24 02:57:33;;;;;;;13.80;2.33;;;6.80;99.90;;;;;;5015034;28;20030;-81
2022/02/24 03:00:00;;;;;;;4.07;2.00;;;7.10;99.90;;;;;;5030794;28;20479;-80
2022/02/24 03:02:26;;;;;;;7.63;2.42;;;6.80;99.90;;;;;;5034118;28;20363;-80
2022/02/24 03:04:52;;;;;;;8.10;2.55;;;6.80;99.90;;;;;;5031862;28;20049;-82
2022/02/24 03:07:18;;;;;;;6.63;1.95;;;6.70;99.90;;;;;;5038345;28;20559;-84
2022/02/24 03:09:45;;;;;;;7.47;2.13;;;6.50;99.90;;;;;;5032263;28;20041;-79
2022/02/24 03:12:12;;;;;;;5.00;2.40;;;6.40;99.90;;;;;;5040055;28;20117;-81
2022/02/24 03:14:38;;;;;;;3.67;1.88;;;6.60;99.90;;;;;;5037760;28;20485;-82
2022/02/24 03:17:05;;;;;;;8.73;2.58;;;6.70;99.90;;;;;;5015535;28;20126;-84
2022/02/24 03:19:31;;;;;;;4.15;1.95;;;6.80;99.90;;;;;;5031490;28;20047;-80
2022/02/24 03:21:57;;;;;;;8.13;2.53;;;6.40;99.90;;;;;;5032715;28;20041;-81
2022/02/24 03:24:22;;;;;;;4.97;2.90;;;6.60;99.90;;;;;;5045484;28;20402;-81
2022/02/24 03:26:48;;;;;;;3.60;1.90;;;6.70;99.90;;;;;;5035381;28;20049;-80
2022/02/24 03:29:15;;;;;;;9.00;2.85;;;6.60;99.90;;;;;;5037463;28;20051;-78
2022/02/24 03:31:40;;;;;;;;;;;6.60;99.90;;;;;;5036407;28;20121;-83
2022/02/24 03:34:06;;;;;;;4.43;1.90;;;6.60;99.90;;;;;;5030225;28;19987;-78
2022/02/24 03:36:35;;;;;;;5.20;1.88;;;6.60;99.90;;;;;;5032112;28;20037;-81
2022/02/24 03:39:01;;;;;;;4.05;1.83;;;6.70;99.90;;;;;;5041516;28;20063;-83
2022/02/24 03:41:26;;;;;;;;;;;6.60;99.90;;;;;;5032339;28;20414;-84
2022/02/24 03:43:53;;;;;;;7.38;2.72;;;6.50;99.90;;;;;;5039234;28;19921;-82
2022/02/24 03:46:20;;;;;;;9.27;2.05;;;6.50;99.90;;;;;;5033084;28;20052;-82
2022/02/24 03:48:50;;;;;;;9.85;2.40;;;6.90;99.90;;;;;;5030841;28;20148;-84
2022/02/24 03:51:17;;;;;;;7.47;2.70;;;6.70;99.90;;;;;;5028575;28;20483;-86
2022/02/24 03:53:44;;;;;;;3.10;1.77;;;6.80;99.90;;;;;;5032527;28;20045;-82
2022/02/24 03:56:10;;;;;;;7.75;2.28;;;6.70;99.90;;;;;;5032249;28;20061;-81
2022/02/24 03:58:35;;;;;;;5.13;2.03;;;6.70;99.90;;;;;;5034499;28;20040;-80
2022/02/24 04:01:02;;;;;;;7.43;2.33;;;7.00;99.90;;;;;;5065379;28;20025;-83
2022/02/24 04:03:28;;;;;;;9.05;1.90;;;6.40;99.90;;;;;;5058734;28;20033;-84
2022/02/24 04:05:55;;;;;;;7.13;2.25;;;6.40;99.90;;;;;;5060222;28;20079;-80
2022/02/24 04:08:21;;;;;;;7.38;2.60;;;6.50;99.90;;;;;;5040055;28;20091;-81
2022/02/24 04:10:47;;;;;;;6.07;2.33;;;6.60;99.90;;;;;;5037207;28;20049;-80
2022/02/24 04:13:13;;;;;;;2.95;1.55;;;6.60;99.90;;;;;;5019187;28;20046;-79
2022/02/24 04:15:39;;;;;;;;;;;6.60;99.90;;;;;;5036472;28;20037;-82
2022/02/24 04:18:06;;;;;;;11.07;2.78;;;6.30;99.90;;;;;;5036348;28;19917;-79
2022/02/24 04:20:32;;;;;;;6.20;2.08;;;6.40;99.90;;;;;;5034376;28;20041;-81
2022/02/24 04:22:58;;;;;;;6.55;2.42;;;6.60;99.90;;;;;;5038648;28;20041;-83
2022/02/24 04:25:24;;;;;;;;;;;6.20;99.90;;;;;;5035739;28;20045;-82
2022/02/24 04:27:51;;;;;;;3.88;1.70;;;6.40;99.90;;;;;;5036512;28;19921;-83
2022/02/24 04:30:19;;;;;;;8.32;2.97;;;6.30;99.90;;;;;;5031256;28;20051;-80
2022/02/24 04:32:46;;;;;;;4.40;1.90;;;6.20;99.90;;;;;;5054446;28;20051;-81
2022/02/24 04:35:12;;;;;;;;;;;6.20;99.90;;;;;;5046184;28;20033;-80
2022/02/24 04:37:38;;;;;;;7.72;2.60;;;6.20;99.90;;;;;;5035145;28;20298;-78
2022/02/24 04:40:06;;;;;;;7.30;2.33;;;6.30;99.90;;;;;;5033244;28;20072;-80
2022/02/24 04:42:32;;;;;;;8.30;2.88;;;6.20;99.90;;;;;;5038487;28;20060;-79
2022/02/24 04:44:59;;;;;;;6.65;2.67;;;6.40;99.90;;;;;;5042880;28;20449;-78
2022/02/24 04:47:26;;;;;;;5.15;2.35;;;6.20;99.90;;;;;;5037426;28;20040;-79
2022/02/24 04:49:53;;;;;;;5.50;2.45;;;6.30;99.90;;;;;;5031770;28;20040;-84
2022/02/24 04:52:18;;;;;;;4.65;2.15;;;6.30;99.90;;;;;;5039152;28;20045;-79
2022/02/24 04:54:44;;;;;;;5.32;2.03;;;6.30;99.90;;;;;;5042592;28;20132;-80
2022/02/24 04:57:10;;;;;;;10.40;2.78;;;6.40;99.90;;;;;;5015608;28;20045;-82
2022/02/24 04:59:36;;;;;;;7.55;1.98;;;6.60;99.90;;;;;;5016661;28;20053;-80
2022/02/24 05:02:02;;;;;;;10.40;2.10;;;6.50;99.90;;;;;;5034743;28;20076;-78
2022/02/24 05:04:28;;;;;;;7.28;2.28;;;6.50;99.90;;;;;;5013322;28;20129;-77
2022/02/24 05:06:54;;;;;;;8.75;2.33;;;6.50;99.90;;;;;;5036689;28;20049;-80
2022/02/24 05:09:20;;;;;;;6.95;2.28;;;6.60;99.90;;;;;;5041232;28;20446;-81
2022/02/24 05:11:45;;;;;;;5.47;2.70;;;6.40;99.90;;;;;;5033532;28;20038;-81
2022/02/24 05:14:11;;;;;;;7.43;2.22;;;6.50;99.90;;;;;;5044173;28;20098;-81
2022/02/24 05:16:37;;;;;;;9.27;1.90;;;6.40;99.90;;;;;;5030247;28;20459;-81
2022/02/24 05:19:02;;;;;;;9.55;2.30;;;6.30;99.90;;;;;;5041688;28;20363;-81
2022/02/24 05:21:28;;;;;;;9.25;2.13;;;6.30;99.90;;;;;;5034459;28;20120;-77
2022/02/24 05:23:57;;;;;;;5.35;1.88;;;6.30;99.90;;;;;;5042595;28;20037;-78
2022/02/24 05:26:23;;;;;;;5.47;2.00;;;6.20;99.90;;;;;;5031252;28;20340;-78
2022/02/24 05:28:48;;;;;;;3.92;2.08;;;6.20;99.90;;;;;;5033728;28;20077;-78
2022/02/24 05:31:14;;;;;;;7.05;1.73;;;6.20;99.90;;;;;;5014757;28;20052;-78
2022/02/24 05:33:39;;;;;;;5.60;1.80;;;6.20;99.90;;;;;;5041360;28;20490;-78
2022/02/24 05:36:06;;;;;;;3.30;2.10;;;6.30;99.90;;;;;;5030832;28;20064;-77
2022/02/24 05:38:32;;;;;;;7.35;2.58;;;6.30;99.90;;;;;;5032320;28;20049;-77
2022/02/24 05:40:58;;;;;;;6.00;2.53;;;6.30;99.90;;;;;;5014667;28;20049;-79
2022/02/24 05:43:25;;;;;;;10.02;3.10;;;6.40;99.90;;;;;;5031244;28;20128;-80
2022/02/24 05:45:51;;;;;;;6.82;2.00;;;6.40;99.90;;;;;;5031252;28;20127;-80
2022/02/24 05:48:16;;;;;;;5.50;2.00;;;6.50;99.90;;;;;;5014659;28;20502;-78
2022/02/24 05:50:42;;;;;;;8.13;3.00;;;6.50;99.90;;;;;;5030665;28;20045;-79
2022/02/24 05:53:08;;;;;;;7.20;2.28;;;6.50;99.90;;;;;;5031235;28;20391;-80
2022/02/24 05:55:35;;;;;;;10.30;2.85;;;6.40;99.90;;;;;;5030765;28;20118;-79
2022/02/24 05:58:01;;;;;;;8.35;2.72;;;6.40;99.90;;;;;;5031593;28;20045;-79
2022/02/24 06:00:27;;;;;;;;;;;6.40;99.90;;;;;;5038568;28;20073;-78
2022/02/24 06:02:53;;;;;;;8.48;1.95;;;6.60;99.90;;;;;;5013107;28;19964;-76
2022/02/24 06:05:19;;;;;;;7.07;2.45;;;6.80;99.90;;;;;;5031386;28;20033;-78
2022/02/24 06:07:44;;;;;;;7.20;2.30;;;6.40;99.90;;;;;;5036034;28;20049;-78
2022/02/24 06:10:11;;;;;;;5.35;2.47;;;6.40;99.90;;;;;;5026909;28;20053;-77
2022/02/24 06:12:37;;;;;;;3.90;2.22;;;6.50;99.90;;;;;;5040010;28;20037;-80
2022/02/24 06:15:04;;;;;;;7.22;2.50;;;6.50;99.90;;;;;;5042378;28;20046;-81
2022/02/24 06:17:30;;;;;;;7.22;2.42;;;6.50;99.90;;;;;;5031526;28;20451;-79
2022/02/24 06:19:56;;;;;;;10.35;2.42;;;6.50;99.90;;;;;;5031425;28;20079;-80
2022/02/24 06:22:22;;;;;;;7.65;2.50;;;6.50;99.90;;;;;;5020129;28;20098;-80
2022/02/24 06:24:48;;;;;;;;;;;6.40;99.90;;;;;;5043733;28;20553;-80
2022/02/24 06:27:14;;;;;;;8.27;2.37;;;6.60;99.90;;;;;;5015574;28;19999;-81
2022/02/24 06:29:40;;;;;;;10.38;2.38;;;6.70;99.90;;;;;;5033493;28;20371;-80
2022/02/24 06:32:06;;;;;;;3.50;1.95;;;6.60;99.90;;;;;;5049867;28;20041;-80
2022/02/24 06:34:32;;;;;;;6.38;2.47;;;6.60;99.90;;;;;;5033275;28;20453;-80
2022/02/24 06:36:58;;;;;;;4.00;2.28;;;6.60;99.90;;;;;;5031036;28;20125;-80
2022/02/24 06:39:24;;;;;;;9.95;2.40;;;6.60;99.90;;;;;;5030748;28;20045;-80
2022/02/24 06:41:49;;;;;;;6.13;2.80;;;6.60;99.90;;;;;;5029929;28;20049;-78
2022/02/24 06:44:15;;;;;;;5.38;2.70;;;6.40;99.90;;;;;;5030589;28;20454;-80
2022/02/24 06:46:42;;;;;;;4.03;2.08;;;6.80;99.90;;;;;;5031851;28;20136;-80
2022/02/24 06:49:07;;;;;;;3.40;2.08;;;6.60;99.90;;;;;;5029635;28;20112;-80
2022/02/24 06:51:39;;;;;;;4.03;1.65;;;6.90;99.90;;;;;;5030460;28;20071;-79
2022/02/24 06:54:05;;;;;;;7.00;2.22;;;6.60;99.90;;;;;;5030384;28;20045;-81
2022/02/24 06:56:31;;;;;;;7.43;2.45;;;6.60;99.90;;;;;;5043901;28;20126;-82
2022/02/24 06:58:56;;;;;;;5.63;2.40;;;6.80;99.90;;;;;;5037203;28;20049;-81
2022/02/24 07:01:22;;;;;;;9.95;2.55;;;6.90;99.90;;;;;;5030600;28;20048;-81
2022/02/24 07:03:48;;;;;;;6.68;2.42;;;6.60;99.90;;;;;;5030338;28;20064;-78
2022/02/24 07:06:13;;;;;;;5.07;2.45;;;6.70;99.90;;;;;;5013465;28;20064;-80
2022/02/24 07:08:39;;;;;;;6.13;2.50;;;6.80;99.90;;;;;;5032150;28;20056;-81
2022/02/24 07:11:05;;;;;;;8.43;2.50;;;6.70;99.90;;;;;;5031012;28;20135;-80
2022/02/24 07:13:31;;;;;;;;;;;6.80;99.90;;;;;;5031053;28;20059;-80
2022/02/24 07:15:56;;;;;;;10.10;3.00;;;6.60;99.90;;;;;;5030471;28;19917;-81
2022/02/24 07:18:23;;;;;;;4.13;2.47;;;6.60;99.90;;;;;;5019014;28;20055;-85
2022/02/24 07:20:48;;;;;;;6.07;2.95;;;6.60;99.90;;;;;;5039623;28;20053;-80
2022/02/24 07:23:14;;;;;;;8.63;3.03;;;6.50;99.90;;;;;;5014021;28;20041;-80
2022/02/24 07:25:41;;;;;;;6.85;3.15;;;6.70;99.90;;;;;;5030552;28;20049;-80
2022/02/24 07:28:07;;;;;;;5.78;2.17;;;6.60;99.90;;;;;;5027206;28;20100;-81
2022/02/24 07:30:37;;;;;;;7.63;2.63;;;6.60;99.90;;;;;;5027722;28;20041;-79
2022/02/24 07:33:04;;;;;;;5.93;2.53;;;6.60;99.90;;;;;;5038494;28;20037;-81
2022/02/24 07:35:30;;;;;;;8.23;2.95;;;6.70;99.90;;;;;;5033279;28;20038;-80
2022/02/24 07:37:55;;;;;;;;;;;7.00;99.90;;;;;;5042133;28;20045;-80
2022/02/24 07:40:21;;;;;;;7.00;3.10;;;6.70;99.90;;;;;;5033014;28;20608;-77
2022/02/24 07:42:47;;;;;;;9.55;2.95;;;6.70;99.90;;;;;;5046260;28;20145;-81
2022/02/24 07:45:13;;;;;;;7.78;2.83;;;6.70;99.90;;;;;;5036316;28;20049;-80
2022/02/24 07:47:39;;;;;;;;;;;6.80;99.90;;;;;;5042182;28;20048;-81
2022/02/24 07:50:06;;;;;;;7.15;2.90;;;6.80;99.90;;;;;;5033833;28;20355;-83
2022/02/24 07:52:31;;;;;;;6.93;3.22;;;6.90;99.90;;;;;;5016660;28;20449;-80
2022/02/24 07:54:58;;;;;;;5.57;2.88;;;7.00;99.90;;;;;;5046301;28;20037;-80
2022/02/24 07:57:24;;;;;;;4.85;2.63;;;7.00;99.90;;;;;;5034849;28;20040;-81
2022/02/24 07:59:49;;;;;;;8.55;3.25;;;7.20;99.90;;;;;;5037218;28;20663;-80
2022/02/24 08:02:15;;;;;;;7.95;3.13;;;7.10;99.90;;;;;;5018262;28;20116;-80
2022/02/24 08:04:41;;;;;;;5.65;2.30;;;7.10;99.90;;;;;;5034308;28;20052;-80
2022/02/24 08:07:07;;;;;;;9.43;2.60;;;7.20;99.90;;;;;;5037042;28;20367;-80
2022/02/24 08:09:33;;;;;;;7.68;2.72;;;7.20;99.90;;;;;;5050935;28;20360;-80
2022/02/24 08:14:42;;;;;;;5.88;2.78;;;7.30;99.90;;;;;;5039353;28;20083;-81
2022/02/24 08:17:08;;;;;;;5.97;2.58;;;7.30;99.90;;;;;;5031999;28;20037;-80
2022/02/24 08:19:34;;;;;;;7.53;2.30;;;7.30;99.90;;;;;;5033596;28;20635;-79
2022/02/24 08:22:01;;;;;;;7.10;2.45;;;7.40;99.90;;;;;;5036246;28;20055;-79
2022/02/24 08:24:26;;;;;;;;;;;7.40;99.90;;;;;;5033293;28;20111;-80
2022/02/24 08:26:55;;;;;;;6.22;2.28;;;7.40;99.90;;;;;;5036757;28;19921;-79
2022/02/24 08:29:21;;;;;;;8.93;3.28;;;7.40;99.90;;;;;;5034975;28;20092;-79
2022/02/24 08:31:46;;;;;;;7.10;2.88;;;7.50;99.90;;;;;;5032203;28;20095;-79
2022/02/24 08:34:12;;;;;;;7.45;2.65;;;7.50;99.90;;;;;;5029037;28;20037;-79
2022/02/24 08:36:38;;;;;;;7.30;2.40;;;7.50;99.90;;;;;;5031452;28;20639;-79
2022/02/24 08:39:08;;;;;;;5.88;2.75;;;7.50;99.90;;;;;;5030824;28;20040;-79
2022/02/24 08:41:35;;;;;;;6.82;3.03;;;7.50;99.90;;;;;;5031093;28;20165;-83
2022/02/24 08:44:01;;;;;;;9.98;3.05;;;7.40;99.90;;;;;;5033160;28;20434;-80
2022/02/24 08:46:28;;;;;;;6.43;2.65;;;8.00;99.90;;;;;;5031961;28;20510;-80
2022/02/24 08:48:54;;;;;;;5.93;2.90;;;7.50;99.90;;;;;;5032595;28;20057;-79
2022/02/24 08:51:20;;;;;;;14.05;2.97;;;7.70;99.90;;;;;;5017039;28;20111;-79
2022/02/24 08:53:45;;;;;;;7.85;2.97;;;7.60;99.90;;;;;;5033166;28;20056;-79
2022/02/24 08:56:12;;;;;;;8.73;2.70;;;7.90;99.90;;;;;;5050019;28;20041;-79
2022/02/24 08:58:38;;;;;;;6.88;3.22;;;7.60;99.90;;;;;;5024476;28;20045;-82
2022/02/24 09:01:03;;;;;;;11.52;3.25;;;7.90;99.90;;;;;;5014132;28;20050;-79
2022/02/24 09:03:29;;;;;;;7.25;2.58;;;7.80;99.90;;;;;;5031500;28;20049;-81
2022/02/24 09:05:55;;;;;;;8.55;2.72;;;7.90;99.90;;;;;;5014821;28;20072;-79
2022/02/24 09:08:20;;;;;;;11.32;2.63;;;7.90;99.90;;;;;;5033324;28;20073;-80
2022/02/24 09:10:46;;;;;;;11.70;3.25;;;8.00;99.90;;;;;;5038608;28;20111;-80
2022/02/24 09:13:12;;;;;;;13.27;3.38;;;8.30;99.90;;;;;;5015271;28;20439;-83
2022/02/24 09:15:38;;;;;;;11.60;3.50;;;8.00;99.90;;;;;;5019821;28;20041;-80
2022/02/24 09:18:09;;;;;;;6.72;3.47;;;8.20;99.90;;;;;;5029855;28;20037;-81
2022/02/24 09:20:34;;;;;;;5.88;2.85;;;8.40;99.90;;;;;;5012751;28;20131;-80
2022/02/24 09:23:00;;;;;;;8.50;3.58;;;8.20;99.90;;;;;;5001252;28;20550;-78
2022/02/24 09:25:26;;;;;;;9.50;2.97;;;8.20;99.90;;;;;;5001330;28;20606;-79
2022/02/24 09:27:52;;;;;;;;;;;8.20;99.90;;;;;;5032995;28;20064;-80
2022/02/24 09:30:18;;;;;;;4.93;3.00;;;8.20;99.90;;;;;;5031664;28;20332;-80
2022/02/24 09:32:44;;;;;;;6.65;2.45;;;8.30;99.90;;;;;;5019988;28;20046;-80
2022/02/24 09:35:12;;;;;;;5.93;3.30;;;8.30;99.90;;;;;;5032568;28;20053;-80
2022/02/24 09:37:38;;;;;;;10.55;3.17;;;8.30;99.90;;;;;;5036569;28;20065;-80
2022/02/24 09:40:04;;;;;;;;;;;8.30;99.90;;;;;;5018284;28;20391;-79
2022/02/24 09:42:37;;;;;;;12.63;2.72;;;8.20;99.90;;;;;;5018933;28;19925;-79
2022/02/24 09:45:04;;;;;;;9.02;2.95;;;8.10;99.90;;;;;;5032758;28;20037;-80
2022/02/24 09:47:30;;;;;;;9.25;3.58;;;8.10;99.90;;;;;;5042804;28;20474;-78
2022/02/24 09:50:01;;;;;;;11.80;3.10;;;8.10;99.90;;;;;;5029464;28;20045;-79
2022/02/24 09:52:27;;;;;;;10.52;2.75;;;8.10;99.90;;;;;;5026076;28;20523;-79
2022/02/24 09:54:53;;;;;;;6.95;2.58;;;8.10;99.90;;;;;;5031745;28;20069;-80
2022/02/24 09:57:18;;;;;;;4.10;2.42;;;8.10;99.90;;;;;;5036282;28;20103;-77
2022/02/24 09:59:44;;;;;;;5.03;2.53;;;8.10;99.90;;;;;;5037111;28;20072;-76
2022/02/24 10:02:15;;;;;;;7.15;3.10;;;8.10;99.90;;;;;;5031304;28;20051;-77
2022/02/24 10:05:09;;;;;;;6.30;2.78;;;8.20;99.90;;;;;;5015261;28;20156;-78
2022/02/24 10:07:37;;;;;;;10.38;3.03;;;8.20;99.90;;;;;;5015815;28;20045;-78
2022/02/24 10:10:24;;;;;;;9.75;3.08;;;8.20;99.90;;;;;;5037092;28;20087;-80
2022/02/24 10:13:03;;;;;;;6.85;2.47;;;8.30;99.90;;;;;;5035787;28;20101;-78
2022/02/24 10:15:30;;;;;;;5.10;2.83;;;8.30;99.90;;;;;;5065019;28;20038;-77
2022/02/24 10:18:15;;;;;;;6.75;2.60;;;8.40;99.90;;;;;;5036499;28;20038;-76
2022/02/24 10:20:40;;;;;;;7.18;2.97;;;8.50;99.90;;;;;;5015029;28;20045;-79
2022/02/24 10:23:09;;;;;;;6.20;2.85;;;8.50;99.90;;;;;;5024433;28;20075;-77
2022/02/24 10:25:53;;;;;;;9.07;3.83;;;8.60;99.90;;;;;;5019415;28;20053;-83
2022/02/24 10:28:51;;;;;;;4.47;2.60;;;8.70;99.90;;;;;;5013371;28;20050;-79
2022/02/24 10:31:23;;;;;;;4.78;2.28;;;8.80;99.90;;;;;;5029724;28;20430;-78
2022/02/24 10:33:52;;;;;;;6.32;3.10;;;8.90;99.90;;;;;;5018047;28;20490;-79
2022/02/24 10:36:25;;;;;;;7.05;3.05;;;9.00;99.90;;;;;;5031644;28;20041;-80
2022/02/24 10:39:03;;;;;;;9.32;3.00;;;9.10;99.90;;;;;;5016105;28;20112;-80
2022/02/24 10:41:40;;;;;;;8.43;3.15;;;9.20;99.90;;;;;;5017520;28;20045;-79
2022/02/24 10:44:26;;;;;;;8.90;4.35;;;9.30;99.90;;;;;;5037125;28;20057;-83
2022/02/24 10:47:03;;;;;;;5.57;3.03;;;9.60;99.90;;;;;;5030357;28;20037;-83
2022/02/24 10:49:35;;;;;;;8.35;3.42;;;9.80;99.90;;;;;;5032040;28;20320;-80
2022/02/24 10:52:14;;;;;;;4.28;3.13;;;9.90;99.90;;;;;;5051430;28;20037;-79
2022/02/24 10:54:54;;;;;;;3.17;2.17;;;9.90;99.90;;;;;;5027136;28;20049;-80
2022/02/24 10:57:28;;;;;;;9.65;3.80;;;9.90;99.90;;;;;;5043905;28;20055;-81
2022/02/24 10:59:55;;;;;;;4.63;2.35;;;10.00;99.90;;;;;;5015954;28;20043;-78
2022/02/24 11:02:22;;;;;;;7.85;3.17;;;10.00;99.90;;;;;;5040741;28;20071;-79
2022/02/24 11:04:49;;;;;;;6.88;2.92;;;9.90;99.90;;;;;;5014343;28;20056;-82
2022/02/24 11:07:15;;;;;;;5.50;2.75;;;9.90;99.90;;;;;;5031409;28;20395;-78
2022/02/24 11:09:42;;;;;;;9.00;3.05;;;9.90;99.90;;;;;;5030454;28;20510;-78
2022/02/24 11:12:10;;;;;;;7.95;2.50;;;9.90;99.90;;;;;;5034182;28;20399;-80
2022/02/24 11:14:39;;;;;;;3.80;2.33;;;9.90;99.90;;;;;;5030892;28;20049;-81
2022/02/24 11:17:09;;;;;;;6.43;3.47;;;9.90;99.90;;;;;;5030326;28;20042;-81
2022/02/24 11:19:45;;;;;;;4.70;2.60;;;9.80;99.90;;;;;;5028357;28;20515;-82
2022/02/24 11:22:11;;;;;;;8.18;3.90;;;9.80;99.90;;;;;;5008151;28;20046;-80
2022/02/24 11:24:41;;;;;;;;;;;9.90;99.90;;;;;;5027107;28;20045;-83
2022/02/24 11:27:36;;;;;;;9.20;3.50;;;9.60;99.90;;;;;;5048987;28;19931;-85
2022/02/24 11:30:04;;;;;;;4.72;2.10;;;10.10;99.90;;;;;;5033978;28;20179;-82
2022/02/24 11:32:32;;;;;;;7.25;2.60;;;10.10;99.90;;;;;;5022264;28;20041;-83
2022/02/24 11:35:31;;;;;;;4.13;1.77;;;10.10;99.90;;;;;;5009632;28;20053;-85
2022/02/24 11:38:06;;;;;;;7.82;3.20;;;10.10;99.90;;;;;;5013399;28;20132;-82
2022/02/24 11:40:36;;;;;;;6.75;2.80;;;10.10;99.90;;;;;;5041678;28;20546;-84
2022/02/24 11:43:23;;;;;;;4.22;2.40;;;10.10;99.90;;;;;;5038894;28;20184;-82
2022/02/24 11:45:54;;;;;;;6.82;3.08;;;10.20;99.90;;;;;;5035180;28;20037;-79
2022/02/24 11:48:22;;;;;;;4.82;2.55;;;10.20;99.90;;;;;;5039442;28;20222;-80
2022/02/24 11:50:59;;;;;;;6.38;2.85;;;10.10;99.90;;;;;;5020020;28;20046;-81
2022/02/24 11:53:28;;;;;;;4.70;2.58;;;10.10;99.90;;;;;;5039792;28;20034;-81
2022/02/24 11:55:55;;;;;;;5.32;2.15;;;10.00;99.90;;;;;;5048178;28;20396;-83
2022/02/24 11:58:48;;;;;;;4.80;2.60;;;10.00;99.90;;;;;;5051163;28;20076;-81
2022/02/24 12:01:15;;;;;;;5.10;1.83;;;9.90;99.90;;;;;;5022786;28;20073;-81
2022/02/24 12:03:44;;;;;;;5.00;2.35;;;9.90;99.90;;;;;;5015078;28;20051;-80
2022/02/24 12:06:14;;;;;;;5.55;2.33;;;9.90;99.90;;;;;;5013601;28;20463;-84
2022/02/24 12:09:03;;;;;;;11.23;2.30;;;9.80;99.90;;;;;;5031140;28;20049;-81
2022/02/24 12:11:50;;;;;;;4.85;2.47;;;9.80;99.90;;;;;;5030500;28;20073;-82
2022/02/24 12:14:18;;;;;;;4.15;2.25;;;9.70;99.90;;;;;;5010859;28;20057;-82
2022/02/24 12:17:03;;;;;;;5.18;2.28;;;9.60;99.90;;;;;;5008754;28;20049;-82
2022/02/24 12:19:42;;;;;;;7.57;2.40;;;9.50;99.90;;;;;;5045741;28;20037;-82
2022/02/24 12:22:17;;;;;;;3.97;1.90;;;9.40;99.90;;;;;;5014222;28;20079;-82
2022/02/24 12:24:45;;;;;;;7.75;2.83;;;9.30;99.90;;;;;;5032942;28;20463;-84
2022/02/24 12:27:33;;;;;;;4.10;2.42;;;9.30;99.90;;;;;;5014692;28;20037;-82
2022/02/24 12:30:05;;;;;;;3.60;1.98;;;9.30;99.90;;;;;;5021248;28;20383;-83
2022/02/24 12:33:00;;;;;;;6.03;2.65;;;9.00;99.90;;;;;;5038046;28;20049;-82
2022/02/24 12:35:28;;;;;;;4.15;2.22;;;9.00;99.90;;;;;;5027280;28;20045;-83
2022/02/24 12:37:54;;;;;;;5.80;2.58;;;8.90;99.90;;;;;;5023358;28;20053;-82
2022/02/24 12:40:20;;;;;;;4.90;2.90;;;8.90;99.90;;;;;;5018315;28;20037;-82
2022/02/24 12:42:46;;;;;;;5.88;2.85;;;8.70;99.90;;;;;;5042108;28;20149;-80
2022/02/24 12:45:12;;;;;;;;;;;8.70;99.90;;;;;;5015925;28;20053;-83
2022/02/24 12:47:38;;;;;;;8.05;2.22;;;8.10;99.90;;;;;;5020589;28;19924;-83
2022/02/24 12:50:04;;;;;;;4.80;2.67;;;8.50;99.90;;;;;;5022252;28;20076;-83
2022/02/24 12:52:30;;;;;;;;;;;8.40;99.90;;;;;;5034459;28;20145;-81
2022/02/24 12:54:57;;;;;;;4.88;2.17;;;8.40;99.90;;;;;;5033590;28;20007;-81
2022/02/24 12:57:26;;;;;;;5.72;2.13;;;8.40;99.90;;;;;;5026171;28;20087;-80
2022/02/24 12:59:56;;;;;;;9.15;3.40;;;8.30;99.90;;;;;;5012788;28;20398;-80
2022/02/24 13:02:23;;;;;;;6.47;3.25;;;8.30;99.90;;;;;;5034926;28;20064;-84
2022/02/24 13:04:49;;;;;;;8.07;2.92;;;8.30;99.90;;;;;;5037067;28;20037;-79
2022/02/24 13:09:42;;;;;;;6.20;2.60;;;8.20;99.90;;;;;;5043815;28;20042;-80
2022/02/24 13:10:03;;;;;;;9.77;3.03;;;8.10;99.90;;;;;;5033550;28;20072;-80